Список аэропортов
Фактическая погода:

15 августа, 23:30
Температура: +10°C (+10.0*)
Ветер: 0
Давление: *760 мм
неб. облачность
900 м
Время (МСК)Темп. СВетерВлажностьДавлениеОблачностьОсадки
20:00+12З, 1 м/с84%1014 гПаоблачно
21:00+11З, 1 м/с92%1014 гПас прояснениями
22:00+10З, 1 м/с96%1014 гПас прояснениями
23:00+9З, 1 м/с99%1014 гПамалооблачно
16 августа
00:00+7С, 1 м/с100%1014 гПамалооблачно
01:00+7СВ, 1 м/с100%1015 гПаоблачно
02:00+7СВ, 1 м/с100%1015 гПаоблачно
03:00+7Штиль 100%1015 гПаоблачно
04:00+7Штиль 100%1015 гПас прояснениями
05:00+8Штиль 99%1016 гПас прояснениями
06:00+10Штиль 97%1016 гПас прояснениями
07:00+11Штиль 95%1016 гПаоблачно
08:00+12З, 1 м/с90%1017 гПаоблачно
09:00+13З, 1 м/с81%1017 гПаоблачно
10:00+14З, 1 м/с73%1017 гПаоблачно
11:00+15З, 1 м/с67%1017 гПаоблачно
12:00+15З, 2 м/с63%1018 гПаоблачно
13:00+15З, 3 м/с60%1018 гПас прояснениями
14:00+16З, 3 м/с55%1018 гПамалооблачно
15:00+16З, 3 м/с58%1018 гПамалооблачно
16:00+16З, 3 м/с58%1019 гПамалооблачно
17:00+15З, 3 м/с57%1019 гПаоблачно
18:00+14З, 2 м/с60%1020 гПас прояснениями
19:00+12З, 1 м/с74%1020 гПаоблачно
20:00+12Штиль 86%1020 гПаоблачно
21:00+11Штиль 89%1020 гПаоблачно
22:00+10Штиль 90%1020 гПаоблачно
23:00+10Ю, 1 м/с91%1020 гПаоблачно
17 августа
00:00+10ЮВ, 1 м/с94%1021 гПаоблачно
01:00+10ЮВ, 1 м/с94%1021 гПаоблачно
02:00+10ЮВ, 1 м/с95%1021 гПаоблачно
03:00+10В, 1 м/с96%1021 гПаоблачно
04:00+10ЮВ, 2 м/с94%1021 гПаоблачно
05:00+11ЮВ, 1 м/с93%1021 гПаоблачно
06:00+12ЮВ, 2 м/с85%1021 гПамалооблачно
07:00+14Ю, 2 м/с68%1021 гПамалооблачно
08:00+17Ю, 2 м/с57%1020 гПас прояснениями
09:00+19Ю, 2 м/с52%1020 гПаоблачно
10:00+20Ю, 2 м/с48%1020 гПаоблачно
11:00+21Ю, 2 м/с45%1020 гПаоблачно
12:00+21Ю, 2 м/с47%1020 гПаоблачно
13:00+22Ю, 2 м/с47%1020 гПаоблачно
14:00+23Ю, 2 м/с47%1019 гПамалооблачно
15:00+23ЮЗ, 2 м/с48%1019 гПамалооблачно
16:00+22ЮЗ, 2 м/с49%1018 гПас прояснениями
17:00+21Ю, 2 м/с54%1018 гПаоблачно
18:00+20ЮВ, 1 м/с65%1018 гПаоблачно
19:00+18Ю, 2 м/с74%1018 гПас прояснениями
20:00+18Ю, 2 м/с74%1018 гПаоблачно